createdAt,value
2019-02-12T00:01:09.985Z,99675.25
2019-02-12T00:03:38.689Z,99671.96
2019-02-12T00:06:07.126Z,99678.17
2019-02-12T00:08:35.624Z,99681.70
2019-02-12T00:11:04.099Z,99685.77
2019-02-12T00:13:33.306Z,99695.11
2019-02-12T00:16:02.408Z,99686.06
2019-02-12T00:18:31.012Z,99681.95
2019-02-12T00:20:59.773Z,99692.53
2019-02-12T00:23:28.559Z,99697.82
2019-02-12T00:25:57.350Z,99693.82
2019-02-12T00:28:26.553Z,99702.65
2019-02-12T00:30:55.557Z,99700.99
2019-02-12T00:33:24.441Z,99712.81
2019-02-12T00:35:53.222Z,99714.94
2019-02-12T00:38:21.967Z,99710.88
2019-02-12T00:40:50.404Z,99712.76
2019-02-12T00:43:19.882Z,99713.28
2019-02-12T00:45:48.498Z,99716.81
2019-02-12T00:48:17.561Z,99424.81
2019-02-12T00:50:46.698Z,99714.36
2019-02-12T00:53:15.507Z,99713.47
2019-02-12T00:55:44.456Z,99721.52
2019-02-12T00:58:13.453Z,99722.86
2019-02-12T01:00:42.061Z,99733.10
2019-02-12T01:03:10.894Z,99725.45
2019-02-12T01:05:39.543Z,99717.06
2019-02-12T01:08:08.233Z,99715.05
2019-02-12T01:10:36.918Z,99724.41
2019-02-12T01:13:05.744Z,99729.81
2019-02-12T01:15:36.887Z,99725.34
2019-02-12T01:18:05.309Z,99662.96
2019-02-12T01:20:33.747Z,99724.88
2019-02-12T01:23:02.850Z,99725.45
2019-02-12T01:25:31.284Z,99730.80
2019-02-12T01:28:00.033Z,99741.87
2019-02-12T01:30:30.642Z,99746.64
2019-02-12T01:32:59.126Z,99743.34
2019-02-12T01:35:29.113Z,99741.10
2019-02-12T01:37:58.255Z,99738.86
2019-02-12T01:40:26.691Z,99736.03
2019-02-12T01:42:55.121Z,99729.00
2019-02-12T01:45:23.920Z,99729.00
2019-02-12T01:47:52.638Z,99721.34
2019-02-12T01:50:21.073Z,99726.17
2019-02-12T01:52:49.836Z,99721.47
2019-02-12T01:55:18.932Z,99731.92
2019-02-12T01:57:47.955Z,99739.91
2019-02-12T02:00:16.671Z,99674.50
2019-02-12T02:02:45.922Z,99743.14
2019-02-12T02:05:14.595Z,99735.33
2019-02-12T02:07:43.040Z,99749.04
2019-02-12T02:10:14.457Z,99741.66
2019-02-12T02:12:43.420Z,99744.49
2019-02-12T02:15:12.214Z,99745.31
2019-02-12T02:17:40.654Z,99756.13
2019-02-12T02:20:11.057Z,99752.84
2019-02-12T02:22:39.604Z,99761.41
2019-02-12T02:25:09.411Z,99759.17
2019-02-12T02:27:38.034Z,99754.59
2019-02-12T02:30:08.018Z,99748.66
2019-02-12T02:32:37.929Z,99758.65
2019-02-12T02:35:09.059Z,99760.65
2019-02-12T02:37:37.852Z,99752.23
2019-02-12T02:40:06.948Z,99755.42
2019-02-12T02:42:35.407Z,99748.86
2019-02-12T02:45:04.220Z,99754.34
2019-02-12T02:47:32.665Z,99758.41
2019-02-12T02:50:03.317Z,99756.16
2019-02-12T02:52:31.583Z,99766.11
2019-02-12T02:55:00.499Z,99764.76
2019-02-12T02:57:29.620Z,99762.58
2019-02-12T02:59:58.385Z,99763.16
2019-02-12T03:02:27.273Z,99771.65
2019-02-12T03:04:56.155Z,99764.25
2019-02-12T03:07:24.589Z,99774.34
2019-02-12T03:09:53.330Z,99772.23
2019-02-12T03:12:22.130Z,99758.13
2019-02-12T03:14:51.286Z,99756.34
2019-02-12T03:17:19.723Z,99751.39
2019-02-12T03:19:48.557Z,99758.02
2019-02-12T03:22:17.369Z,99772.05
2019-02-12T03:24:46.321Z,99769.59
2019-02-12T03:27:15.359Z,99778.94
2019-02-12T03:29:44.066Z,99770.16
2019-02-12T03:32:12.861Z,99772.80
2019-02-12T03:34:41.528Z,99772.86
2019-02-12T03:37:09.980Z,99773.97
2019-02-12T03:39:39.282Z,99782.73
2019-02-12T03:42:08.082Z,99780.63
2019-02-12T03:44:36.531Z,99789.80
2019-02-12T03:47:04.966Z,99785.64
2019-02-12T03:49:33.662Z,99792.12
2019-02-12T03:52:02.115Z,99790.52
2019-02-12T03:54:30.901Z,99786.71
2019-02-12T03:56:59.328Z,99789.94
2019-02-12T03:59:27.769Z,99797.98
2019-02-12T04:01:56.200Z,99801.40
2019-02-12T04:04:24.920Z,99800.63
2019-02-12T04:06:53.359Z,99807.46
2019-02-12T04:09:22.084Z,99815.11
2019-02-12T04:11:50.839Z,99820.89
2019-02-12T04:14:19.287Z,99820.97
2019-02-12T04:16:48.063Z,99822.39
2019-02-12T04:19:16.509Z,99825.86
2019-02-12T04:21:45.265Z,99828.88
2019-02-12T04:24:13.966Z,99836.09
2019-02-12T04:26:42.399Z,99829.33
2019-02-12T04:29:11.160Z,99834.42
2019-02-12T04:31:39.595Z,99831.45
2019-02-12T04:34:08.531Z,99826.95
2019-02-12T04:36:36.961Z,99830.41
2019-02-12T04:39:05.750Z,99832.28
2019-02-12T04:41:37.245Z,99820.71
2019-02-12T04:44:05.699Z,99823.86
2019-02-12T04:46:34.724Z,99818.11
2019-02-12T04:49:03.512Z,99817.05
2019-02-12T04:51:32.179Z,99820.88
2019-02-12T04:54:01.300Z,99824.11
2019-02-12T04:56:29.719Z,99823.66
2019-02-12T04:58:58.486Z,99824.28
2019-02-12T05:01:27.146Z,99827.44
2019-02-12T05:03:55.944Z,99834.41
2019-02-12T05:06:24.928Z,99836.52
2019-02-12T05:09:17.052Z,99842.44
2019-02-12T05:12:11.025Z,99846.73
2019-02-12T05:14:39.469Z,99845.45
2019-02-12T05:17:08.418Z,99850.48
2019-02-12T05:19:36.937Z,99855.67
2019-02-12T05:22:05.352Z,99847.56
2019-02-12T05:24:34.093Z,99842.30
2019-02-12T05:27:02.527Z,99843.65
2019-02-12T05:29:31.259Z,99840.05
2019-02-12T05:32:00.214Z,99846.80
2019-02-12T05:34:28.882Z,99848.22
2019-02-12T05:36:57.590Z,99845.77
2019-02-12T05:39:26.307Z,99835.27
2019-02-12T05:41:55.267Z,99848.91
2019-02-12T05:44:24.232Z,99853.87
2019-02-12T05:46:53.009Z,99854.91
2019-02-12T05:49:21.447Z,99852.20
2019-02-12T05:51:50.423Z,99857.19
2019-02-12T05:54:18.865Z,99865.58
2019-02-12T05:56:47.555Z,99869.72
2019-02-12T05:59:16.281Z,99862.67
2019-02-12T06:01:44.734Z,99874.36
2019-02-12T06:04:13.516Z,99877.90
2019-02-12T06:06:41.937Z,99878.21
2019-02-12T06:09:10.678Z,99875.95
2019-02-12T06:11:39.800Z,99875.64
2019-02-12T06:14:08.241Z,99879.85
2019-02-12T06:16:37.189Z,99881.80
2019-02-12T06:19:05.861Z,99873.38
2019-02-12T06:21:34.638Z,99883.15
2019-02-12T06:24:03.069Z,99889.75
2019-02-12T06:26:31.528Z,99888.55
2019-02-12T06:29:00.291Z,99897.56
2019-02-12T06:31:29.083Z,99901.73
2019-02-12T06:33:57.513Z,99911.19
2019-02-12T06:36:25.959Z,99910.31
2019-02-12T06:38:54.381Z,99913.53
2019-02-12T06:41:23.078Z,99914.20
2019-02-12T06:43:52.108Z,99917.22
2019-02-12T06:46:20.571Z,99911.50
2019-02-12T06:48:48.999Z,99918.02
2019-02-12T06:51:20.523Z,99917.22
2019-02-12T06:53:48.982Z,99923.69
2019-02-12T06:56:17.937Z,99915.03
2019-02-12T06:58:46.605Z,99919.63
2019-02-12T07:01:15.354Z,99917.66
2019-02-12T07:04:04.966Z,99918.56
2019-02-12T07:07:07.046Z,99918.12
2019-02-12T07:09:57.994Z,99930.59
2019-02-12T07:12:59.570Z,99926.98
2019-02-12T07:15:37.942Z,99930.88
2019-02-12T07:18:26.240Z,99935.67
2019-02-12T07:21:31.767Z,99941.84
2019-02-12T07:24:36.737Z,99941.84
2019-02-12T07:27:46.753Z,99951.45
2019-02-12T07:30:46.969Z,99953.25
2019-02-12T07:34:11.901Z,99959.32
2019-02-12T07:36:52.970Z,99961.36
2019-02-12T07:40:04.558Z,99965.56
2019-02-12T07:42:48.439Z,99971.72
2019-02-12T07:45:47.147Z,99983.72
2019-02-12T07:48:45.208Z,99985.38
2019-02-12T07:51:51.226Z,99982.16
2019-02-12T07:55:01.335Z,99994.40
2019-02-12T07:57:59.628Z,99995.13
2019-02-12T08:00:40.743Z,100001.75
2019-02-12T08:03:38.306Z,100006.86
2019-02-12T08:06:39.384Z,100003.37
2019-02-12T08:10:04.346Z,100011.05
2019-02-12T08:13:14.958Z,100012.48
2019-02-12T08:16:20.437Z,100019.62
2019-02-12T08:19:30.990Z,100023.87
2019-02-12T08:22:30.587Z,100026.14
2019-02-12T08:25:09.889Z,100030.73
2019-02-12T08:27:54.185Z,100031.05
2019-02-12T08:30:38.909Z,100039.00
2019-02-12T08:33:37.625Z,100042.81
2019-02-12T08:36:38.465Z,100048.15
2019-02-12T08:39:18.493Z,100054.17
2019-02-12T08:42:10.376Z,100052.20
2019-02-12T08:44:49.969Z,100046.80
2019-02-12T08:48:03.585Z,100054.91
2019-02-12T08:50:53.997Z,100053.92
2019-02-12T08:53:50.581Z,100060.91
2019-02-12T08:56:25.993Z,100059.86
2019-02-12T08:59:11.325Z,100062.41
2019-02-12T09:01:58.897Z,100064.66
2019-02-12T09:04:36.783Z,100061.95
2019-02-12T09:07:18.971Z,100066.16
2019-02-12T09:10:18.452Z,100064.21
2019-02-12T09:13:09.424Z,100069.34
2019-02-12T09:16:18.016Z,100070.22
2019-02-12T09:18:57.151Z,100079.26
2019-02-12T09:21:46.247Z,100080.69
2019-02-12T09:24:45.122Z,100081.66
2019-02-12T09:27:27.002Z,100084.37
2019-02-12T09:30:37.497Z,100092.60
2019-02-12T09:33:29.997Z,100089.79
2019-02-12T09:36:58.075Z,100089.55
2019-02-12T09:39:59.052Z,100088.05
2019-02-12T09:42:49.347Z,100093.05
2019-02-12T09:45:49.846Z,100095.77
2019-02-12T09:48:32.620Z,100100.62
2019-02-12T09:51:54.742Z,100099.78
2019-02-12T09:54:40.115Z,100101.87
2019-02-12T09:57:36.995Z,100101.55
2019-02-12T10:00:29.980Z,100114.85
2019-02-12T10:03:33.496Z,100106.38
2019-02-12T10:06:46.499Z,100106.27
2019-02-12T10:09:47.949Z,100115.19
2019-02-12T10:12:45.213Z,100108.92
2019-02-12T10:15:47.996Z,100120.91
2019-02-12T10:18:25.509Z,100123.69
2019-02-12T10:21:29.647Z,100109.20
2019-02-12T10:24:19.962Z,100112.92
2019-02-12T10:27:01.997Z,100117.47
2019-02-12T10:30:08.664Z,100116.18
2019-02-12T10:32:35.974Z,100121.23
2019-02-12T10:35:04.760Z,100127.46
2019-02-12T10:37:33.196Z,100124.86
2019-02-12T10:40:01.637Z,100127.12
2019-02-12T10:42:30.363Z,100129.27
2019-02-12T10:44:59.076Z,100131.00
2019-02-12T10:47:27.531Z,100116.12
2019-02-12T10:49:56.316Z,100116.48
2019-02-12T10:52:25.062Z,100128.31
2019-02-12T10:54:53.513Z,100133.56
2019-02-12T10:57:22.634Z,100136.48
2019-02-12T10:59:51.397Z,100133.92
2019-02-12T11:02:20.461Z,100134.51
2019-02-12T11:04:49.455Z,100132.89
2019-02-12T11:07:18.204Z,100127.48
2019-02-12T11:09:46.923Z,100123.90
2019-02-12T11:12:15.916Z,100125.11
2019-02-12T11:14:44.366Z,100123.20
2019-02-12T11:17:12.796Z,100121.39
2019-02-12T11:19:41.231Z,100125.08
2019-02-12T11:22:09.663Z,100124.23
2019-02-12T11:24:38.108Z,100129.35
2019-02-12T11:27:07.205Z,100129.35
2019-02-12T11:29:36.011Z,100136.55
2019-02-12T11:32:04.567Z,100129.08
2019-02-12T11:34:33.378Z,100133.83
2019-02-12T11:37:01.820Z,100137.61
2019-02-12T11:39:30.262Z,100140.94
2019-02-12T11:41:59.014Z,100141.39
2019-02-12T11:44:27.724Z,100137.75
2019-02-12T11:46:56.494Z,100135.41
2019-02-12T11:49:27.843Z,100148.23
2019-02-12T11:51:56.631Z,100142.41
2019-02-12T11:54:25.576Z,100142.91
2019-02-12T11:56:54.319Z,100138.26
2019-02-12T11:59:22.764Z,100142.92
2019-02-12T12:01:51.214Z,100143.66
2019-02-12T12:04:22.737Z,100145.59
2019-02-12T12:06:51.517Z,100142.84
2019-02-12T12:09:19.963Z,100146.48
2019-02-12T12:11:48.409Z,100142.86
2019-02-12T12:14:17.173Z,100134.08
2019-02-12T12:16:45.930Z,100139.11
2019-02-12T12:19:15.339Z,100143.06
2019-02-12T12:21:45.494Z,100141.11
2019-02-12T12:24:14.566Z,100142.97
2019-02-12T12:26:43.345Z,100138.58
2019-02-12T12:29:11.775Z,100138.40
2019-02-12T12:31:40.475Z,100140.03
2019-02-12T12:34:09.201Z,100131.83
2019-02-12T12:36:37.989Z,100136.36
2019-02-12T12:39:07.009Z,100121.38
2019-02-12T12:41:35.567Z,100122.76
2019-02-12T12:44:04.253Z,100126.77
2019-02-12T12:46:33.247Z,100136.75
2019-02-12T12:49:01.683Z,100124.01
2019-02-12T12:51:31.618Z,100125.09
2019-02-12T12:54:00.056Z,100121.08
2019-02-12T12:56:28.516Z,100126.23
2019-02-12T12:58:57.245Z,100126.80
2019-02-12T13:01:26.013Z,100121.35
2019-02-12T13:03:54.419Z,100127.90
2019-02-12T13:06:23.095Z,100126.87
2019-02-12T13:08:51.771Z,100136.34
2019-02-12T13:11:20.710Z,100133.09
2019-02-12T13:13:49.395Z,100135.13
2019-02-12T13:16:17.818Z,100130.64
2019-02-12T13:18:46.560Z,100139.45
2019-02-12T13:21:15.662Z,100139.45
2019-02-12T13:23:44.446Z,100140.90
2019-02-12T13:26:13.225Z,100144.22
2019-02-12T13:28:42.000Z,100139.03
2019-02-12T13:31:10.485Z,100139.41
2019-02-12T13:33:39.285Z,100143.49
2019-02-12T13:36:08.082Z,100149.81
2019-02-12T13:38:38.048Z,100157.17
2019-02-12T13:41:07.084Z,100162.42
2019-02-12T13:43:35.979Z,100155.92
2019-02-12T13:46:04.421Z,100162.02
2019-02-12T13:48:33.529Z,100163.59
2019-02-12T13:51:02.235Z,100158.59
2019-02-12T13:53:30.687Z,100159.22
2019-02-12T13:55:59.114Z,100163.42
2019-02-12T13:58:27.624Z,100168.99
2019-02-12T14:00:56.012Z,100170.16
2019-02-12T14:03:24.819Z,100178.81
2019-02-12T14:05:53.538Z,100185.14
2019-02-12T14:08:21.989Z,100188.17
2019-02-12T14:10:50.421Z,100187.68
2019-02-12T14:13:20.301Z,100197.97
2019-02-12T14:15:48.757Z,100195.36
2019-02-12T14:18:17.207Z,100200.21
2019-02-12T14:20:45.956Z,100193.61
2019-02-12T14:23:14.743Z,100198.50
2019-02-12T14:25:43.207Z,100195.92
2019-02-12T14:28:11.743Z,100201.27
2019-02-12T14:30:40.175Z,100199.44
2019-02-12T14:33:08.618Z,100194.48
2019-02-12T14:35:37.059Z,100197.16
2019-02-12T14:38:05.511Z,100198.53
2019-02-12T14:40:33.964Z,100203.03
2019-02-12T14:43:02.405Z,100206.32
2019-02-12T14:45:31.484Z,100205.42
2019-02-12T14:48:00.846Z,100205.32
2019-02-12T14:50:32.433Z,100202.18
2019-02-12T14:53:01.526Z,100198.62
2019-02-12T14:55:33.828Z,100180.09
2019-02-12T14:58:00.135Z,100183.89
2019-02-12T15:00:28.566Z,100186.02
2019-02-12T15:02:57.405Z,100185.85
2019-02-12T15:05:25.922Z,100186.48
2019-02-12T15:07:54.670Z,100187.21
2019-02-12T15:10:23.537Z,100189.24
2019-02-12T15:12:52.318Z,100194.08
2019-02-12T15:15:21.069Z,100194.39
2019-02-12T15:17:49.786Z,100182.73
2019-02-12T15:27:55.621Z,100140.58
2019-02-12T15:30:24.715Z,100138.20
2019-02-12T15:32:53.638Z,100146.41
2019-02-12T15:35:22.698Z,100143.23
2019-02-12T15:37:51.157Z,100151.36
2019-02-12T15:40:19.655Z,100154.29
2019-02-12T15:42:48.447Z,100148.28
2019-02-12T15:45:17.439Z,100156.80
2019-02-12T15:47:45.896Z,100164.88
2019-02-12T15:50:14.607Z,100163.72
2019-02-12T15:52:43.053Z,100164.36
2019-02-12T15:55:12.571Z,100161.64
2019-02-12T15:57:43.695Z,100160.42
2019-02-12T16:00:15.492Z,100171.23
2019-02-12T16:02:44.096Z,100173.94
2019-02-12T16:05:12.702Z,100172.86
2019-02-12T16:07:42.610Z,100175.30
2019-02-12T16:10:14.895Z,100171.97
2019-02-12T16:12:44.037Z,100167.31
2019-02-12T16:15:14.591Z,100172.74
2019-02-12T16:17:43.044Z,100179.25
2019-02-12T16:20:11.839Z,100181.47
2019-02-12T16:22:40.629Z,100189.16
2019-02-12T16:25:09.562Z,100184.56
2019-02-12T16:27:38.008Z,100192.28
2019-02-12T16:30:09.326Z,100192.47
2019-02-12T16:32:38.036Z,100195.70
2019-02-12T16:35:07.679Z,100199.87
2019-02-12T16:37:36.427Z,100192.20
2019-02-12T16:40:05.875Z,100190.38
2019-02-12T16:42:34.312Z,100194.29
2019-02-12T16:45:02.952Z,100191.73
2019-02-12T16:47:31.697Z,100208.47
2019-02-12T16:50:00.479Z,100204.25
2019-02-12T16:52:29.261Z,100212.91
2019-02-12T16:54:57.712Z,100211.80
2019-02-12T16:57:26.168Z,100204.72
2019-02-12T16:59:54.878Z,100203.05
2019-02-12T17:02:23.848Z,100210.45
2019-02-12T17:04:52.321Z,100213.44
2019-02-12T17:07:21.014Z,100208.66
2019-02-12T17:09:52.391Z,100212.42
2019-02-12T17:12:20.900Z,100224.94
2019-02-12T17:14:49.972Z,100233.91
2019-02-12T17:17:18.660Z,100233.08
2019-02-12T17:19:47.118Z,100238.25
2019-02-12T17:22:15.587Z,100240.91
2019-02-12T17:24:44.085Z,100240.63
2019-02-12T17:27:12.585Z,100239.27
2019-02-12T17:29:41.259Z,100237.60
2019-02-12T17:32:09.768Z,100241.98
2019-02-12T17:34:38.454Z,100241.61
2019-02-12T17:37:07.231Z,100240.78
2019-02-12T17:39:35.944Z,100240.78
2019-02-12T17:42:04.418Z,100245.16
2019-02-12T17:44:33.139Z,100244.57
2019-02-12T17:47:02.187Z,100252.70
2019-02-12T17:49:30.642Z,100253.54
2019-02-12T17:51:59.350Z,100247.03
2019-02-12T17:54:28.144Z,100251.04
2019-02-12T17:56:56.677Z,100248.58
2019-02-12T17:59:25.548Z,100249.68
2019-02-12T18:01:53.967Z,100253.16
2019-02-12T18:04:23.080Z,100256.12
2019-02-12T18:06:51.914Z,100252.86
2019-02-12T18:09:20.974Z,100257.10
2019-02-12T18:11:49.430Z,100264.72
2019-02-12T18:14:17.887Z,100259.05
2019-02-12T18:16:46.345Z,100254.08
2019-02-12T18:19:14.850Z,100259.57
2019-02-12T18:21:43.885Z,100261.42
2019-02-12T18:24:12.347Z,100265.48
2019-02-12T18:26:40.803Z,100258.08
2019-02-12T18:29:09.551Z,100259.31
2019-02-12T18:31:38.309Z,100255.03
2019-02-12T18:34:07.094Z,100254.78
2019-02-12T18:36:35.898Z,100262.61
2019-02-12T18:39:05.054Z,100256.53
2019-02-12T18:41:34.193Z,100250.34
2019-02-12T18:44:02.632Z,100245.69
2019-02-12T18:46:31.133Z,100244.05
2019-02-12T18:49:00.233Z,100241.03
2019-02-12T18:51:29.036Z,100234.36
2019-02-12T18:53:57.766Z,100227.27
2019-02-12T18:56:26.210Z,100232.80
2019-02-12T18:58:54.986Z,100229.85
2019-02-12T19:01:23.450Z,100228.12
2019-02-12T19:03:52.155Z,100224.05
2019-02-12T19:06:20.607Z,100220.92
2019-02-12T19:08:50.043Z,100222.73
2019-02-12T19:11:18.537Z,100229.20
2019-02-12T19:13:47.010Z,100223.19
2019-02-12T19:16:15.793Z,100224.02
2019-02-12T19:18:44.287Z,100223.19
2019-02-12T19:21:12.743Z,100229.06
2019-02-12T19:23:41.448Z,100235.42
2019-02-12T19:26:10.223Z,100223.69
2019-02-12T19:28:38.984Z,100222.02
2019-02-12T19:31:07.458Z,100219.55
2019-02-12T19:33:36.486Z,100228.27
2019-02-12T19:36:05.274Z,100231.95
2019-02-12T19:38:34.002Z,100239.56
2019-02-12T19:41:02.442Z,100240.08
2019-02-12T19:43:31.526Z,100241.16
2019-02-12T19:46:00.244Z,100236.78
2019-02-12T19:48:28.727Z,100238.06
2019-02-12T19:50:57.482Z,100253.42
2019-02-12T19:53:26.514Z,100244.45
2019-02-12T19:55:55.212Z,100250.02
2019-02-12T19:58:23.911Z,100239.42
2019-02-12T20:00:52.613Z,100248.30
2019-02-12T20:03:21.077Z,100249.14
2019-02-12T20:05:49.529Z,100252.51
2019-02-12T20:08:17.983Z,100249.88
2019-02-12T20:10:46.687Z,100252.58
2019-02-12T20:13:15.874Z,100256.22
2019-02-12T20:15:44.312Z,100262.40
2019-02-12T20:18:14.092Z,100268.55
2019-02-12T20:20:43.160Z,100266.00
2019-02-12T20:23:12.110Z,100267.36
2019-02-12T20:25:40.576Z,100266.31
2019-02-12T20:28:09.542Z,100258.33
2019-02-12T20:30:37.989Z,100271.34
2019-02-12T20:33:06.480Z,100257.73
2019-02-12T20:35:36.259Z,100259.84
2019-02-12T20:38:05.157Z,100248.56
2019-02-12T20:40:33.858Z,100253.28
2019-02-12T20:43:02.552Z,100252.77
2019-02-12T20:45:32.190Z,100248.48
2019-02-12T20:48:00.941Z,100251.87
2019-02-12T20:50:29.411Z,100253.36
2019-02-12T20:52:58.251Z,100254.70
2019-02-12T20:55:27.013Z,100252.45
2019-02-12T20:57:55.480Z,100256.82
2019-02-12T21:00:23.997Z,100258.86
2019-02-12T21:02:52.744Z,100243.30
2019-02-12T21:05:21.260Z,100250.94
2019-02-12T21:07:51.827Z,100250.66
2019-02-12T21:10:20.306Z,100250.27
2019-02-12T21:12:48.984Z,100241.95
2019-02-12T21:15:19.222Z,100232.75
2019-02-12T21:17:47.940Z,100243.50
2019-02-12T21:20:16.675Z,100249.37
2019-02-12T21:22:45.423Z,100242.98
2019-02-12T21:25:14.097Z,100243.89
2019-02-12T21:27:42.558Z,100246.60
2019-02-12T21:30:13.726Z,100242.61
2019-02-12T21:32:42.228Z,100255.01
2019-02-12T21:35:11.101Z,100251.09
2019-02-12T21:37:39.555Z,100250.22
2019-02-12T21:40:11.635Z,100256.23
2019-02-12T21:42:39.609Z,100258.94
2019-02-12T21:45:08.889Z,100265.09
2019-02-12T21:47:37.315Z,100264.81
2019-02-12T21:50:06.061Z,100265.54
2019-02-12T21:52:34.530Z,100264.19
2019-02-12T21:55:03.238Z,100272.45
2019-02-12T21:57:32.244Z,100264.65
2019-02-12T22:00:00.767Z,100267.67
2019-02-12T22:02:29.735Z,100267.19
2019-02-12T22:04:58.212Z,100265.25
2019-02-12T22:07:26.667Z,100264.94
2019-02-12T22:09:55.613Z,100267.80
2019-02-12T22:12:24.324Z,100256.20
2019-02-12T22:14:53.050Z,100252.66
2019-02-12T22:17:21.748Z,100269.30
2019-02-12T22:19:50.438Z,100279.37
2019-02-12T22:22:18.905Z,100270.52
2019-02-12T22:24:47.607Z,100270.20
2019-02-12T22:27:16.061Z,100276.07
2019-02-12T22:29:44.521Z,100275.00
2019-02-12T22:32:12.980Z,100275.52
2019-02-12T22:34:41.443Z,100274.62
2019-02-12T22:37:10.173Z,100271.88
2019-02-12T22:39:39.543Z,100270.83
2019-02-12T22:42:08.031Z,100278.96
2019-02-12T22:44:36.473Z,100274.97
2019-02-12T22:47:05.166Z,100281.43
2019-02-12T22:49:33.908Z,100291.16
2019-02-12T22:52:02.393Z,100297.24
2019-02-12T22:54:31.073Z,100307.64
2019-02-12T22:56:59.775Z,100300.58
2019-02-12T22:59:28.483Z,100298.08
2019-02-12T23:01:57.421Z,100305.52
2019-02-12T23:04:26.119Z,100306.59
2019-02-12T23:06:55.089Z,100304.23
2019-02-12T23:09:23.522Z,100312.75
2019-02-12T23:11:52.231Z,100310.10
2019-02-12T23:14:20.955Z,100300.44
2019-02-12T23:16:49.518Z,100317.09
2019-02-12T23:19:18.072Z,100317.40
2019-02-12T23:21:46.817Z,100314.23
2019-02-12T23:24:15.284Z,100318.30
2019-02-12T23:26:43.779Z,100300.67
2019-02-12T23:29:12.479Z,100299.73
2019-02-12T23:31:41.196Z,100313.08
2019-02-12T23:34:09.659Z,100307.41
2019-02-12T23:36:38.159Z,100306.58
2019-02-12T23:39:06.600Z,100306.83
2019-02-12T23:41:35.080Z,100312.25
2019-02-12T23:44:03.520Z,100312.25
2019-02-12T23:46:32.244Z,100300.63
2019-02-12T23:49:03.430Z,100306.05
2019-02-12T23:51:31.916Z,100293.39
2019-02-12T23:54:00.655Z,100287.13
2019-02-12T23:56:29.381Z,100302.30
2019-02-12T23:58:58.077Z,100292.18
